SANR

Termas De Rio Ho Airport

Termas De Rio Ho, Argentina
TAF SANR 252300Z 2600/2624 14005KT 5000 BR BKN010 TX29/2619Z TN22/2611Z BECMG 2605/2608 VRB02KT 0600 DZ FG OVC002 BECMG 2514/2517 09005KT 9999 BKN020
Issued Valid From Valid To
Apr-25 @ 23:00 UTC
(7 hours ago)
Apr-26 @ 00:00 UTC
(6 hours ago)
Apr-27 @ 00:00 UTC
(in 18 hours)
Expired Click to View Apr-26 @ 00:00 to Apr-26 @ 05:00
TAF SANR 252300Z 2600/2624 14005KT 5000 BR BKN010 TX29/2619Z TN22/2611Z
Wind Visibility Clouds Conditions
140° at 5 knots 5,005 meters
  • Broken at 1,000' AGL
  • Mist
Becoming Apr-25 @ 14:00 to Apr-27 @ 00:00
BECMG 2514/2517 09005KT 9999 BKN020
Wind Visibility Clouds Conditions
90° at 5 knots 10,000+ meters
  • Broken at 2,000' AGL
  • Drizzle
  • Fog
Becoming Apr-26 @ 05:00 to Apr-27 @ 00:00
BECMG 2605/2608 VRB02KT 0600 DZ FG OVC002
Wind Visibility Clouds Conditions
Variable at 2 knots 595 meters
  • Overcast at 200' AGL
  • Drizzle
  • Fog
TAF SANR 252300Z 2600/2624 14005KT 5000 BR BKN010 TX29/2619Z TN22/2611Z BECMG 2605/2608 VRB02KT 0600 DZ FG OVC002 BECMG 2514/2517 09005KT 9999 BKN020
Issued Apr-25 @ 23:00 UTC
(7 hours ago)
Valid From Apr-26 @ 00:00 UTC
(6 hours ago)
Valid To Apr-27 @ 00:00 UTC
(in 18 hours)
Apr-26 @ 00:00 - Apr-26 @ 05:00
Wind Visibility
140° at 5 knots 5,005 meters
Clouds
  • Broken at 1,000' AGL
Conditions
  • Mist
Becoming Apr-25 @ 14:00 - Apr-27 @ 00:00
Wind Visibility
90° at 5 knots 10,000+ meters
Clouds
  • Broken at 2,000' AGL
Conditions
  • Drizzle
  • Fog
Becoming Apr-26 @ 05:00 - Apr-27 @ 00:00
Wind Visibility
Variable at 2 knots 595 meters
Clouds
  • Overcast at 200' AGL
Conditions
  • Drizzle
  • Fog